Latest Coastal Weather Observations for Adele Island

IDW60701

Issued at 10:03 pm WST Friday 24 March 2017 (issued every 10 minutes, with the page automatically refreshed every 10 minutes)

About coastal observations | Map of coastal stations | Coastal observations for WA | Marine services | Other Formats
Station Details ID: 200735 Name: ADELE ISLAND Lat: -15.51 Lon: 123.16 Height: 4.6 m
Data from the previous 72 hours. | See also: Recent months at Adele Island
Date/Time
WST
Temp
°C
Wind Pressure Rain since
9am
mm
Weather Cloud Vis
km
Sea
Height
m
Swell
Dir  Spd
kts
Gust
kts
hPa Trend Height
m
Period
s
Dir
24/10:00pm - WNW 9 11 1009.6 - - - - - - - - -
24/09:30pm - WNW 11 14 1009.6 - - - - - - - - -
24/09:00pm - WNW 10 13 1009.3 - - - - - - - - -
24/08:30pm - WNW 12 14 1009.2 - - - - - - - - -
24/08:00pm - WNW 10 12 1009.0 - - - - - - - - -
24/07:30pm - WNW 11 14 1008.3 - - - - - - - - -
24/07:00pm - WNW 12 14 1008.1 - - - - - - - - -
24/06:30pm - W 11 14 1008.0 - - - - - - - - -
24/06:00pm - W 10 12 1007.4 - - - - - - - - -
24/05:30pm - WSW 10 12 1007.0 - - - - - - - - -
24/05:00pm - WSW 10 13 1006.6 - - - - - - - - -
24/04:30pm - W 9 11 1006.3 - - - - - - - - -
24/04:00pm - W 8 10 1006.2 - - - - - - - - -
24/03:30pm - WNW 7 9 1006.1 - - - - - - - - -
24/03:00pm - WNW 8 11 1006.2 - - - - - - - - -
24/02:30pm - W 9 11 1006.6 - - - - - - - - -
24/02:00pm - W 10 12 1007.4 - - - - - - - - -
24/01:30pm - WNW 10 13 1008.0 - - - - - - - - -
24/01:00pm - WNW 11 13 1008.4 - - - - - - - - -
24/12:30pm - NW 9 11 1008.9 - - - - - - - - -
24/12:00pm - WNW 11 13 1009.2 - - - - - - - - -
24/11:30am - WNW 8 11 1009.6 - - - - - - - - -
24/11:00am - NW 8 9 1009.9 - - - - - - - - -
24/10:30am - NW 7 9 1010.3 - - - - - - - - -
24/10:00am - NW 8 11 1010.6 - - - - - - - - -
24/09:30am - NW 7 8 1010.8 - - - - - - - - -
24/09:00am - W 8 10 1011.1 - - - - - - - - -
24/08:30am - WSW 8 11 1010.9 - - - - - - - - -
24/08:00am - W 8 11 1010.5 - - - - - - - - -
24/07:30am - W 9 11 1010.1 - - - - - - - - -
24/07:00am - W 9 12 1010.1 - - - - - - - - -
24/06:30am - W 11 14 1009.8 - - - - - - - - -
24/06:00am - W 12 14 1009.7 - - - - - - - - -
24/05:30am - WNW 10 13 1009.3 - - - - - - - - -
24/05:00am - WNW 11 15 1009.0 - - - - - - - - -
24/04:30am - WNW 12 15 1008.8 - - - - - - - - -
24/04:00am - WNW 12 16 1008.5 - - - - - - - - -
24/03:30am - WNW 12 14 1008.5 - - - - - - - - -
24/03:00am - WNW 14 16 1008.5 - - - - - - - - -
24/02:30am - WNW 12 14 1008.4 - - - - - - - - -
24/02:00am - NW 11 13 1008.2 - - - - - - - - -
24/01:30am - NNW 13 15 1008.2 - - - - - - - - -
24/01:00am - NNW 11 14 1008.5 - - - - - - - - -
24/12:30am - NW 16 20 1008.6 - - - - - - - - -
24/12:00am - WNW 15 19 1009.1 - - - - - - - - -
 
Date/Time
WST
Temp
°C
Wind Pressure Rain since
9am
mm
Weather Cloud Vis
km
Sea
Height
m
Swell
Dir  Spd
kts
Gust
kts
hPa Trend Height
m
Period
s
Dir
23/11:30pm - WNW 14 18 1009.8 - - - - - - - - -
23/11:00pm - NW 15 18 1010.5 - - - - - - - - -
23/10:30pm - NW 16 19 1010.8 - - - - - - - - -
23/10:00pm - NW 14 16 1010.7 - - - - - - - - -
23/09:30pm - NW 14 17 1010.5 - - - - - - - - -
23/09:00pm - NW 13 15 1010.3 - - - - - - - - -
23/08:30pm - NW 13 15 1010.3 - - - - - - - - -
23/08:00pm - NW 12 14 1010.0 - - - - - - - - -
23/07:30pm - NW 11 13 1009.6 - - - - - - - - -
23/07:00pm - NW 13 15 1009.4 - - - - - - - - -
23/06:30pm - NW 15 18 1008.9 - - - - - - - - -
23/06:00pm - NNW 13 15 1008.3 - - - - - - - - -
23/05:30pm - NW 12 15 1008.0 - - - - - - - - -
23/05:00pm - NNW 13 16 1007.8 - - - - - - - - -
23/04:30pm - NNW 14 16 1007.7 - - - - - - - - -
23/04:00pm - NW 14 17 1007.7 - - - - - - - - -
23/03:30pm - NW 12 14 1007.5 - - - - - - - - -
23/03:00pm - NNW 12 15 1007.7 - - - - - - - - -
23/02:30pm - NW 14 18 1007.9 - - - - - - - - -
23/02:00pm - WNW 15 18 1008.4 - - - - - - - - -
23/01:30pm - WNW 17 21 1008.6 - - - - - - - - -
23/01:00pm - NW 16 20 1009.2 - - - - - - - - -
23/12:30pm - NW 15 19 1009.4 - - - - - - - - -
23/12:00pm - NW 15 18 1009.8 - - - - - - - - -
23/11:30am - NW 15 18 1010.5 - - - - - - - - -
23/11:00am - NW 12 15 1010.9 - - - - - - - - -
23/10:30am - WNW 11 13 1011.2 - - - - - - - - -
23/10:00am - N 13 15 1010.7 - - - - - - - - -
23/09:30am - NNE 11 15 1010.9 - - - - - - - - -
23/09:00am - NNE 8 11 1010.8 - - - - - - - - -
23/08:30am - NNE 8 10 1010.7 - - - - - - - - -
23/08:00am - N 8 10 1010.8 - - - - - - - - -
23/07:30am - N 1 5 1010.3 - - - - - - - - -
23/07:00am - CALM 0 3 1009.9 - - - - - - - - -
23/06:30am - N 6 7 1009.5 - - - - - - - - -
23/06:00am - N 7 8 1009.2 - - - - - - - - -
23/05:30am - NW 8 9 1009.3 - - - - - - - - -
23/05:00am - NW 6 7 1008.8 - - - - - - - - -
23/04:30am - WNW 7 7 1008.6 - - - - - - - - -
23/04:00am - WNW 7 9 1008.3 - - - - - - - - -
23/03:30am - WNW 11 14 1008.1 - - - - - - - - -
23/03:00am - W 12 16 1008.0 - - - - - - - - -
23/02:30am - WNW 11 16 1008.2 - - - - - - - - -
23/02:00am - WNW 13 17 1008.2 - - - - - - - - -
23/01:30am - WNW 13 17 1008.6 - - - - - - - - -
23/01:00am - NW 19 24 1009.0 - - - - - - - - -
23/12:30am - NW 17 22 1009.4 - - - - - - - - -
23/12:00am - NW 16 20 1009.8 - - - - - - - - -
 
Date/Time
WST
Temp
°C
Wind Pressure Rain since
9am
mm
Weather Cloud Vis
km
Sea
Height
m
Swell
Dir  Spd
kts
Gust
kts
hPa Trend Height
m
Period
s
Dir
22/11:30pm - NW 17 22 1010.0 - - - - - - - - -
22/11:00pm - NW 18 21 1009.9 - - - - - - - - -
22/10:30pm - NW 18 21 1010.2 - - - - - - - - -
22/10:00pm - NW 18 22 1010.3 - - - - - - - - -
22/09:30pm - NNW 19 22 1010.5 - - - - - - - - -
22/09:00pm - NNW 18 21 1010.2 - - - - - - - - -
22/08:30pm - NNW 21 25 1010.2 - - - - - - - - -
22/08:00pm - NNW 19 23 1009.9 - - - - - - - - -
22/07:30pm - NNW 17 21 1009.8 - - - - - - - - -
22/07:00pm - NNW 16 19 1009.1 - - - - - - - - -
22/06:30pm - NW 17 19 1008.6 - - - - - - - - -
22/06:00pm - NW 17 19 1007.7 - - - - - - - - -
22/05:30pm - NW 21 26 1007.5 - - - - - - - - -
22/05:00pm - NNW 19 24 1007.1 - - - - - - - - -
22/04:42pm - NNW 17 28 1007.1 - - - - - - - - -
22/04:30pm - NNW 15 17 1007.1 - - - - - - - - -
22/04:00pm - NNW 13 15 1006.7 - - - - - - - - -
22/03:30pm - NNW 12 14 1006.7 - - - - - - - - -
22/03:00pm - NNW 12 15 1006.7 - - - - - - - - -
22/02:30pm - NNW 13 16 1006.8 - - - - - - - - -
22/02:00pm - NNW 17 20 1007.3 - - - - - - - - -
22/01:30pm - NNW 18 21 1007.7 - - - - - - - - -
22/01:00pm - N 16 19 1007.8 - - - - - - - - -
22/12:30pm - N 14 17 1007.9 - - - - - - - - -
22/12:00pm - N 16 19 1008.1 - - - - - - - - -
22/11:30am - N 17 19 1008.5 - - - - - - - - -
22/11:00am - NNW 18 21 1008.9 - - - - - - - - -
22/10:30am - NNW 19 22 1009.1 - - - - - - - - -
22/10:00am - N 16 19 1009.4 - - - - - - - - -
22/09:30am - NNW 15 17 1009.6 - - - - - - - - -
22/09:00am - NNW 14 18 1009.8 - - - - - - - - -
22/08:30am - NNE 6 9 1009.8 - - - - - - - - -
22/08:00am - NE 4 5 1009.5 - - - - - - - - -
22/07:30am - NNE 8 13 1009.7 - - - - - - - - -
22/07:00am - N 20 24 1009.9 - - - - - - - - -
22/06:30am - NE 17 33 1009.7 - - - - - - - - -
22/06:26am - ENE 18 28 1008.9 - - - - - - - - -
22/06:17am - ENE 18 28 1008.8 - - - - - - - - -
22/06:00am - NE 13 16 1008.9 - - - - - - - - -
22/05:30am - NNE 11 13 1008.3 - - - - - - - - -
22/05:00am - N 13 14 1008.2 - - - - - - - - -
22/04:30am - N 14 16 1007.5 - - - - - - - - -
22/04:00am - NNW 11 13 1007.3 - - - - - - - - -
22/03:30am - NNW 12 13 1007.5 - - - - - - - - -
22/03:00am - NNW 12 14 1007.8 - - - - - - - - -
22/02:30am - N 11 13 1007.9 - - - - - - - - -
22/02:00am - N 11 13 1007.9 - - - - - - - - -
22/01:30am - N 11 13 1008.0 - - - - - - - - -
22/01:00am - N 11 13 1008.0 - - - - - - - - -
22/12:30am - N 10 12 1008.5 - - - - - - - - -
22/12:00am - N 11 13 1008.8 - - - - - - - - -
 
Date/Time
WST
Temp
°C
Wind Pressure Rain since
9am
mm
Weather Cloud Vis
km
Sea
Height
m
Swell
Dir  Spd
kts
Gust
kts
hPa Trend Height
m
Period
s
Dir
21/11:30pm - N 11 13 1009.1 - - - - - - - - -
21/11:00pm - N 11 14 1009.5 - - - - - - - - -
21/10:30pm - NNW 11 12 1009.5 - - - - - - - - -

Other Formats:

Comma delimited format used in spreadsheet applications
http://www.bom.gov.au/fwo/IDW60701/IDW60701.94210.axf

JavaScript Object Notation format (JSON) in row-major order
http://www.bom.gov.au/fwo/IDW60701/IDW60701.94210.json